createdAt,value
2017-12-22T00:00:25.162Z,98.14
2017-12-22T00:01:56.378Z,98.23
2017-12-22T00:03:19.634Z,98.25
2017-12-22T00:04:47.106Z,98.27
2017-12-22T00:06:18.391Z,98.12
2017-12-22T00:07:45.826Z,98.20
2017-12-22T00:09:12.940Z,98.28
2017-12-22T00:10:40.372Z,98.45
2017-12-22T00:12:03.684Z,98.34
2017-12-22T00:13:34.922Z,98.28
2017-12-22T00:14:58.552Z,98.25
2017-12-22T00:16:25.917Z,98.36
2017-12-22T00:17:53.224Z,98.49
2017-12-22T00:19:20.464Z,98.70
2017-12-22T00:20:51.783Z,98.55
2017-12-22T00:22:15.053Z,98.70
2017-12-22T00:23:42.339Z,98.64
2017-12-22T00:25:13.682Z,98.60
2017-12-22T00:26:36.655Z,98.74
2017-12-22T00:28:07.954Z,98.54
2017-12-22T00:29:35.199Z,98.42
2017-12-22T00:31:02.461Z,98.14
2017-12-22T00:32:29.715Z,97.94
2017-12-22T00:33:52.966Z,97.88
2017-12-22T00:35:24.500Z,97.76
2017-12-22T00:36:47.724Z,97.61
2017-12-22T00:38:15.072Z,97.31
2017-12-22T00:39:42.204Z,97.05
2017-12-22T00:41:09.455Z,96.92
2017-12-22T00:42:36.759Z,96.69
2017-12-22T00:44:08.008Z,96.51
2017-12-22T00:45:31.464Z,96.36
2017-12-22T00:46:58.745Z,96.47
2017-12-22T00:48:25.844Z,96.27
2017-12-22T00:49:53.236Z,96.17
2017-12-22T00:51:24.394Z,96.30
2017-12-22T00:52:47.789Z,96.27
2017-12-22T00:54:15.086Z,96.14
2017-12-22T00:55:46.472Z,96.18
2017-12-22T00:57:13.741Z,96.11
2017-12-22T00:58:37.096Z,96.13
2017-12-22T01:00:04.304Z,96.24
2017-12-22T01:01:31.738Z,96.01
2017-12-22T01:03:03.066Z,96.16
2017-12-22T01:04:30.335Z,96.29
2017-12-22T01:05:53.556Z,96.15
2017-12-22T01:07:20.899Z,96.04
2017-12-22T01:08:52.115Z,96.09
2017-12-22T01:10:15.392Z,96.25
2017-12-22T01:11:46.643Z,96.36
2017-12-22T01:13:09.977Z,96.36
2017-12-22T01:14:37.271Z,96.31
2017-12-22T01:16:08.652Z,96.39
2017-12-22T01:17:31.802Z,96.35
2017-12-22T01:18:59.131Z,96.33
2017-12-22T01:20:26.579Z,96.40
2017-12-22T01:21:53.813Z,96.42
2017-12-22T01:23:24.961Z,96.22
2017-12-22T01:24:52.235Z,95.99
2017-12-22T01:26:19.516Z,95.72
2017-12-22T01:27:46.701Z,95.74
2017-12-22T01:29:09.999Z,95.66
2017-12-22T01:30:37.333Z,95.67
2017-12-22T01:32:04.559Z,95.45
2017-12-22T01:33:35.791Z,95.45
2017-12-22T01:34:59.165Z,95.54
2017-12-22T01:36:26.545Z,95.29
2017-12-22T01:37:53.872Z,95.40
2017-12-22T01:39:21.097Z,95.53
2017-12-22T01:40:48.371Z,95.38
2017-12-22T01:42:19.444Z,95.47
2017-12-22T01:43:42.881Z,95.68
2017-12-22T01:45:14.250Z,95.75
2017-12-22T01:46:37.420Z,95.78
2017-12-22T01:48:04.795Z,95.68
2017-12-22T01:49:32.043Z,95.57
2017-12-22T01:50:59.300Z,95.61
2017-12-22T01:52:26.453Z,95.46
2017-12-22T01:53:53.657Z,95.23
2017-12-22T01:55:21.035Z,95.44
2017-12-22T01:56:52.203Z,95.06
2017-12-22T01:58:15.528Z,95.25
2017-12-22T01:59:46.752Z,95.33
2017-12-22T02:01:13.940Z,95.32
2017-12-22T02:02:37.108Z,95.33
2017-12-22T02:04:04.508Z,95.42
2017-12-22T02:05:31.710Z,95.10
2017-12-22T02:07:03.042Z,95.33
2017-12-22T02:08:26.296Z,95.23
2017-12-22T02:09:53.644Z,95.23
2017-12-22T02:11:20.889Z,95.17
2017-12-22T02:12:52.168Z,94.99
2017-12-22T02:14:19.394Z,95.49
2017-12-22T02:15:42.748Z,95.92
2017-12-22T02:17:14.018Z,96.22
2017-12-22T02:18:41.246Z,96.33
2017-12-22T02:20:04.576Z,96.33
2017-12-22T02:21:35.640Z,96.64
2017-12-22T02:23:02.808Z,96.51
2017-12-22T02:24:26.168Z,96.55
2017-12-22T02:25:53.540Z,96.55
2017-12-22T02:27:24.878Z,96.68
2017-12-22T02:28:47.672Z,96.78
2017-12-22T02:30:14.928Z,96.56
2017-12-22T02:31:46.128Z,96.67
2017-12-22T02:33:09.420Z,96.53
2017-12-22T02:34:36.388Z,96.39
2017-12-22T02:36:07.610Z,96.53
2017-12-22T02:37:34.751Z,96.69
2017-12-22T02:39:02.028Z,96.54
2017-12-22T02:40:25.435Z,96.30
2017-12-22T02:41:56.810Z,96.41
2017-12-22T02:43:24.091Z,96.19
2017-12-22T02:44:47.242Z,96.08
2017-12-22T02:46:14.524Z,96.21
2017-12-22T02:47:41.822Z,95.99
2017-12-22T02:49:08.965Z,96.06
2017-12-22T02:50:40.328Z,95.99
2017-12-22T02:52:07.522Z,95.85
2017-12-22T02:53:34.902Z,95.82
2017-12-22T02:54:58.401Z,95.78
2017-12-22T02:56:25.617Z,96.00
2017-12-22T02:57:52.948Z,95.94
2017-12-22T02:59:24.230Z,95.84
2017-12-22T03:00:51.463Z,95.65
2017-12-22T03:02:14.810Z,95.55
2017-12-22T03:03:42.001Z,95.37
2017-12-22T03:05:09.383Z,95.61
2017-12-22T03:06:36.521Z,95.56
2017-12-22T03:08:03.902Z,95.42
2017-12-22T03:09:34.987Z,95.62
2017-12-22T03:11:02.440Z,95.29
2017-12-22T03:12:29.805Z,95.44
2017-12-22T03:13:56.879Z,95.31
2017-12-22T03:15:24.240Z,95.33
2017-12-22T03:16:51.651Z,95.24
2017-12-22T03:18:14.937Z,95.19
2017-12-22T03:19:42.288Z,95.43
2017-12-22T03:21:13.416Z,95.82
2017-12-22T03:22:36.641Z,96.25
2017-12-22T03:24:04.039Z,96.28
2017-12-22T03:25:31.270Z,96.43
2017-12-22T03:26:58.432Z,96.56
2017-12-22T03:28:25.731Z,96.75
2017-12-22T03:29:53.069Z,96.59
2017-12-22T03:31:20.315Z,96.63
2017-12-22T03:32:47.604Z,96.76
2017-12-22T03:34:14.997Z,96.80
2017-12-22T03:35:46.126Z,97.06
2017-12-22T03:37:09.458Z,97.27
2017-12-22T03:38:40.663Z,97.37
2017-12-22T03:40:03.988Z,97.53
2017-12-22T03:41:31.322Z,97.41
2017-12-22T03:42:58.594Z,97.17
2017-12-22T03:44:29.750Z,97.11
2017-12-22T03:45:57.218Z,97.01
2017-12-22T03:47:20.428Z,96.74
2017-12-22T03:48:51.798Z,96.64
2017-12-22T03:50:15.062Z,96.91
2017-12-22T03:51:42.312Z,96.86
2017-12-22T03:53:13.464Z,96.75
2017-12-22T03:54:36.705Z,96.59
2017-12-22T03:56:04.110Z,96.68
2017-12-22T03:57:35.505Z,96.57
2017-12-22T03:58:58.881Z,96.57
2017-12-22T04:00:29.976Z,96.43
2017-12-22T04:01:53.466Z,96.42
2017-12-22T04:03:24.732Z,96.21
2017-12-22T04:04:52.094Z,96.17
2017-12-22T04:06:19.382Z,96.17
2017-12-22T04:07:46.609Z,95.91
2017-12-22T04:09:13.929Z,95.83
2017-12-22T04:10:37.218Z,95.74
2017-12-22T04:12:04.561Z,95.44
2017-12-22T04:13:31.748Z,95.18
2017-12-22T04:14:59.122Z,94.98
2017-12-22T04:16:26.478Z,94.45
2017-12-22T04:17:53.775Z,94.27
2017-12-22T04:19:21.155Z,94.58
2017-12-22T04:20:48.350Z,94.68
2017-12-22T04:22:19.581Z,94.19
2017-12-22T04:23:42.894Z,94.29
2017-12-22T04:25:10.176Z,94.38
2017-12-22T04:26:37.334Z,94.30
2017-12-22T04:28:08.553Z,94.11
2017-12-22T04:29:31.766Z,93.82
2017-12-22T04:30:59.135Z,93.79
2017-12-22T04:32:30.463Z,93.33
2017-12-22T04:33:53.517Z,93.50
2017-12-22T04:35:25.033Z,93.69
2017-12-22T04:36:48.120Z,93.58
2017-12-22T04:38:19.309Z,93.71
2017-12-22T04:39:46.612Z,93.97
2017-12-22T04:41:09.864Z,94.30
2017-12-22T04:42:37.194Z,94.57
2017-12-22T04:44:04.274Z,94.64
2017-12-22T04:45:35.191Z,94.95
2017-12-22T04:46:58.709Z,94.94
2017-12-22T04:48:30.096Z,94.97
2017-12-22T04:49:53.236Z,95.00
2017-12-22T04:51:24.648Z,94.93
2017-12-22T04:52:51.790Z,95.05
2017-12-22T04:54:14.965Z,95.19
2017-12-22T04:55:46.181Z,95.28
2017-12-22T04:57:13.526Z,95.32
2017-12-22T04:58:36.812Z,95.18
2017-12-22T05:00:03.893Z,95.14
2017-12-22T05:01:35.217Z,94.92
2017-12-22T05:02:58.398Z,94.81
2017-12-22T05:04:25.741Z,94.55
2017-12-22T05:05:56.966Z,94.70
2017-12-22T05:07:20.156Z,94.61
2017-12-22T05:08:47.437Z,94.70
2017-12-22T05:10:14.770Z,94.64
2017-12-22T05:11:41.881Z,94.47
2017-12-22T05:13:12.982Z,94.38
2017-12-22T05:14:36.165Z,94.48
2017-12-22T05:16:07.502Z,94.62
2017-12-22T05:17:34.603Z,95.01
2017-12-22T05:18:57.957Z,95.09
2017-12-22T05:20:25.235Z,95.10
2017-12-22T05:21:52.584Z,95.08
2017-12-22T05:23:19.943Z,95.05
2017-12-22T05:24:47.252Z,95.04
2017-12-22T05:26:14.480Z,94.88
2017-12-22T05:27:41.773Z,95.09
2017-12-22T05:29:13.059Z,95.25
2017-12-22T05:30:36.243Z,95.35
2017-12-22T05:32:07.537Z,95.29
2017-12-22T05:33:35.010Z,95.17
2017-12-22T05:35:02.225Z,95.43
2017-12-22T05:36:25.555Z,95.35
2017-12-22T05:37:52.788Z,95.55
2017-12-22T05:39:19.974Z,95.58
2017-12-22T05:40:46.985Z,95.43
2017-12-22T05:42:14.375Z,95.42
2017-12-22T05:43:45.717Z,95.48
2017-12-22T05:45:12.661Z,95.39
2017-12-22T05:46:35.927Z,95.26
2017-12-22T05:48:03.078Z,95.17
2017-12-22T05:49:30.537Z,95.24
2017-12-22T05:51:01.623Z,95.11
2017-12-22T05:52:24.888Z,95.25
2017-12-22T05:53:52.017Z,95.27
2017-12-22T05:55:23.355Z,95.35
2017-12-22T05:56:50.418Z,95.30
2017-12-22T05:58:13.440Z,95.50
2017-12-22T05:59:44.570Z,95.37
2017-12-22T06:01:11.761Z,95.35
2017-12-22T06:02:35.100Z,95.39
2017-12-22T06:04:02.291Z,95.49
2017-12-22T06:05:29.477Z,95.85
2017-12-22T06:06:56.894Z,95.83
2017-12-22T06:08:24.179Z,95.91
2017-12-22T06:09:55.537Z,96.30
2017-12-22T06:11:22.856Z,96.16
2017-12-22T06:12:49.989Z,96.12
2017-12-22T06:14:13.382Z,96.05
2017-12-22T06:15:44.590Z,96.02
2017-12-22T06:17:07.802Z,96.08
2017-12-22T06:18:39.139Z,96.15
2017-12-22T06:20:06.308Z,96.21
2017-12-22T06:21:29.692Z,96.17
2017-12-22T06:22:56.945Z,96.26
2017-12-22T06:24:24.219Z,96.24
2017-12-22T06:25:51.554Z,96.13
2017-12-22T06:27:19.003Z,96.18
2017-12-22T06:28:50.115Z,96.05
2017-12-22T06:30:13.411Z,96.08
2017-12-22T06:31:40.614Z,96.05
2017-12-22T06:33:12.056Z,96.13
2017-12-22T06:34:35.138Z,96.12
2017-12-22T06:36:02.348Z,96.03
2017-12-22T06:37:29.589Z,96.04
2017-12-22T06:38:56.851Z,95.98
2017-12-22T06:40:24.019Z,95.91
2017-12-22T06:41:51.401Z,95.82
2017-12-22T06:43:18.638Z,95.80
2017-12-22T06:44:46.008Z,95.73
2017-12-22T06:46:13.336Z,95.69
2017-12-22T06:47:40.612Z,95.59
2017-12-22T06:49:07.796Z,95.43
2017-12-22T06:50:39.210Z,95.48
2017-12-22T06:52:02.483Z,95.30
2017-12-22T06:53:29.831Z,95.70
2017-12-22T06:54:56.914Z,95.84
2017-12-22T06:56:28.333Z,95.92
2017-12-22T06:57:51.622Z,95.84
2017-12-22T06:59:22.820Z,95.80
2017-12-22T07:00:50.258Z,95.80
2017-12-22T07:02:13.345Z,95.78
2017-12-22T07:03:44.688Z,95.71
2017-12-22T07:05:07.955Z,95.41
2017-12-22T07:06:35.087Z,95.50
2017-12-22T07:08:02.133Z,95.52
2017-12-22T07:09:29.596Z,95.44
2017-12-22T07:10:56.938Z,95.47
2017-12-22T07:12:28.194Z,95.30
2017-12-22T07:13:55.280Z,95.59
2017-12-22T07:15:18.655Z,95.55
2017-12-22T07:16:49.775Z,95.68
2017-12-22T07:18:16.945Z,95.60
2017-12-22T07:19:44.096Z,95.63
2017-12-22T07:21:07.114Z,95.54
2017-12-22T07:22:38.499Z,95.72
2017-12-22T07:24:05.845Z,95.56
2017-12-22T07:25:33.336Z,95.54
2017-12-22T07:27:00.647Z,95.43
2017-12-22T07:28:23.859Z,95.28
2017-12-22T07:29:51.188Z,95.20
2017-12-22T07:31:18.335Z,94.98
2017-12-22T07:32:45.807Z,95.00
2017-12-22T07:34:16.953Z,94.82
2017-12-22T07:35:44.320Z,94.87
2017-12-22T07:37:07.631Z,94.76
2017-12-22T07:38:38.737Z,94.52
2017-12-22T07:40:01.971Z,94.39
2017-12-22T07:41:29.130Z,94.52
2017-12-22T07:42:56.588Z,94.55
2017-12-22T07:44:23.958Z,94.40
2017-12-22T07:45:55.248Z,94.28
2017-12-22T07:47:22.421Z,94.34
2017-12-22T07:48:49.700Z,94.24
2017-12-22T07:50:12.988Z,94.10
2017-12-22T07:51:44.235Z,93.74
2017-12-22T07:53:07.587Z,94.05
2017-12-22T07:54:34.571Z,94.10
2017-12-22T07:56:01.834Z,94.06
2017-12-22T07:57:29.100Z,94.02
2017-12-22T07:58:56.175Z,93.85
2017-12-22T08:00:23.478Z,93.67
2017-12-22T08:01:50.680Z,93.32
2017-12-22T08:03:21.950Z,93.67
2017-12-22T08:04:45.355Z,93.58
2017-12-22T08:06:12.687Z,93.72
2017-12-22T08:07:39.906Z,93.65
2017-12-22T08:09:07.014Z,93.56
2017-12-22T08:10:38.433Z,93.44
2017-12-22T08:12:05.951Z,93.37
2017-12-22T08:13:28.925Z,93.38
2017-12-22T08:14:56.317Z,93.31
2017-12-22T08:16:23.443Z,93.13
2017-12-22T08:17:50.798Z,93.24
2017-12-22T08:19:21.929Z,93.15
2017-12-22T08:20:45.285Z,93.30
2017-12-22T08:22:12.552Z,93.27
2017-12-22T08:23:39.933Z,93.20
2017-12-22T08:25:07.059Z,93.37
2017-12-22T08:26:34.278Z,93.47
2017-12-22T08:28:01.445Z,93.63
2017-12-22T08:29:32.661Z,93.79
2017-12-22T08:30:56.177Z,93.85
2017-12-22T08:32:23.502Z,93.97
2017-12-22T08:33:50.777Z,94.24
2017-12-22T08:35:18.056Z,94.59
2017-12-22T08:36:49.302Z,94.78
2017-12-22T08:38:12.675Z,94.97
2017-12-22T08:39:39.865Z,95.00
2017-12-22T08:41:11.066Z,95.12
2017-12-22T08:42:34.402Z,95.07
2017-12-22T08:44:01.587Z,95.00
2017-12-22T08:45:32.935Z,94.74
2017-12-22T08:46:56.215Z,94.80
2017-12-22T08:48:27.526Z,94.70
2017-12-22T08:49:50.766Z,94.76
2017-12-22T08:51:17.883Z,94.82
2017-12-22T08:52:45.171Z,94.72
2017-12-22T08:54:16.401Z,94.76
2017-12-22T08:55:39.554Z,94.82
2017-12-22T08:57:10.824Z,94.83
2017-12-22T08:58:33.844Z,94.75
2017-12-22T09:00:01.029Z,94.84
2017-12-22T09:01:32.311Z,94.81
2017-12-22T09:02:55.671Z,94.77
2017-12-22T09:04:23.024Z,94.54
2017-12-22T09:05:54.281Z,94.54
2017-12-22T09:07:17.652Z,94.26
2017-12-22T09:08:45.011Z,94.40
2017-12-22T09:10:16.420Z,94.37
2017-12-22T09:11:43.694Z,94.38
2017-12-22T09:13:10.898Z,94.65
2017-12-22T09:14:33.914Z,94.78
2017-12-22T09:16:05.336Z,94.85
2017-12-22T09:17:28.697Z,95.17
2017-12-22T09:18:59.748Z,95.15
2017-12-22T09:20:27.077Z,95.04
2017-12-22T09:21:50.332Z,95.13
2017-12-22T09:23:17.794Z,95.22
2017-12-22T09:24:44.904Z,94.93
2017-12-22T09:26:16.287Z,94.79
2017-12-22T09:27:43.341Z,94.83
2017-12-22T09:29:10.593Z,94.30
2017-12-22T09:30:37.935Z,93.94
2017-12-22T09:32:05.009Z,94.04
2017-12-22T09:33:28.278Z,93.60
2017-12-22T09:34:55.834Z,93.55
2017-12-22T09:36:22.811Z,93.68
2017-12-22T09:37:50.184Z,93.54
2017-12-22T09:39:21.461Z,93.72
2017-12-22T09:40:48.820Z,93.63
2017-12-22T09:42:12.187Z,93.42
2017-12-22T09:43:39.405Z,93.52
2017-12-22T09:45:06.655Z,93.61
2017-12-22T09:46:33.929Z,93.71
2017-12-22T09:48:01.134Z,93.67
2017-12-22T09:49:28.330Z,93.47
2017-12-22T09:50:55.702Z,93.13
2017-12-22T09:52:22.979Z,92.65
2017-12-22T09:53:54.265Z,92.94
2017-12-22T09:55:17.646Z,92.98
2017-12-22T09:56:44.862Z,93.21
2017-12-22T09:58:12.164Z,93.17
2017-12-22T09:59:39.490Z,93.29
2017-12-22T10:01:06.650Z,93.19
2017-12-22T10:02:37.854Z,92.89
2017-12-22T10:04:05.130Z,92.64
2017-12-22T10:05:32.450Z,92.75
2017-12-22T10:06:55.840Z,92.45
2017-12-22T10:08:23.168Z,92.35
2017-12-22T10:09:54.516Z,92.32
2017-12-22T10:11:17.688Z,92.17
2017-12-22T10:12:44.784Z,91.99
2017-12-22T10:14:12.047Z,92.32
2017-12-22T10:15:43.328Z,92.38
2017-12-22T10:17:10.522Z,92.29
2017-12-22T10:18:33.928Z,92.51
2017-12-22T10:20:01.305Z,92.45
2017-12-22T10:21:28.560Z,92.50
2017-12-22T10:22:55.810Z,92.66
2017-12-22T10:24:27.108Z,92.92
2017-12-22T10:25:50.296Z,92.82
2017-12-22T10:27:21.656Z,92.91
2017-12-22T10:28:45.199Z,93.00
2017-12-22T10:30:12.520Z,92.89
2017-12-22T10:31:43.760Z,92.71
2017-12-22T10:33:10.959Z,92.54
2017-12-22T10:34:38.200Z,92.55
2017-12-22T10:36:01.525Z,92.94
2017-12-22T10:37:28.794Z,92.88
2017-12-22T10:39:00.120Z,92.82
2017-12-22T10:40:27.199Z,92.43
2017-12-22T10:41:50.662Z,92.21
2017-12-22T10:43:18.038Z,92.65
2017-12-22T10:44:45.173Z,92.22
2017-12-22T10:46:16.534Z,92.09
2017-12-22T10:47:43.753Z,91.89
2017-12-22T10:49:06.958Z,92.04
2017-12-22T10:50:34.301Z,92.09
2017-12-22T10:52:01.608Z,92.02
2017-12-22T10:53:28.794Z,91.69
2017-12-22T10:54:56.106Z,91.70
2017-12-22T10:56:23.553Z,91.86
2017-12-22T10:57:54.668Z,91.71
2017-12-22T10:59:22.069Z,91.80
2017-12-22T11:00:49.388Z,91.23
2017-12-22T11:02:12.755Z,91.28
2017-12-22T11:03:39.997Z,91.18
2017-12-22T11:05:07.321Z,91.01
2017-12-22T11:06:34.603Z,91.41
2017-12-22T11:08:05.835Z,90.93
2017-12-22T11:09:29.041Z,90.77
2017-12-22T11:11:00.324Z,90.80
2017-12-22T11:12:27.467Z,90.84
2017-12-22T11:13:54.676Z,90.30
2017-12-22T11:15:18.230Z,90.35
2017-12-22T11:16:45.495Z,90.22
2017-12-22T11:18:12.757Z,90.08
2017-12-22T11:19:44.065Z,90.22
2017-12-22T11:21:07.223Z,90.33
2017-12-22T11:22:38.499Z,90.06
2017-12-22T11:24:01.740Z,90.21
2017-12-22T11:25:33.000Z,89.61
2017-12-22T11:27:00.409Z,89.77
2017-12-22T11:28:27.605Z,89.86
2017-12-22T11:29:51.037Z,89.88
2017-12-22T11:31:18.287Z,89.80
2017-12-22T11:32:45.627Z,89.75
2017-12-22T11:34:13.014Z,88.81
2017-12-22T11:35:44.134Z,89.17
2017-12-22T11:37:11.463Z,88.87
2017-12-22T11:38:34.743Z,88.76
2017-12-22T11:40:02.140Z,88.47
2017-12-22T11:41:29.388Z,88.45
2017-12-22T11:43:00.669Z,88.08
2017-12-22T11:44:28.017Z,88.35
2017-12-22T11:45:51.320Z,88.26
2017-12-22T11:47:18.592Z,88.06
2017-12-22T11:48:45.888Z,87.61
2017-12-22T11:50:13.262Z,87.72
2017-12-22T11:51:40.536Z,88.08
2017-12-22T11:53:07.676Z,88.19
2017-12-22T11:54:38.901Z,88.41
2017-12-22T11:56:02.229Z,88.68
2017-12-22T11:57:29.374Z,88.55
2017-12-22T11:59:00.795Z,88.65
2017-12-22T12:00:24.242Z,88.65
2017-12-22T12:01:51.511Z,88.48
2017-12-22T12:03:19.061Z,88.50
2017-12-22T12:04:46.162Z,88.45
2017-12-22T12:06:17.409Z,88.41
2017-12-22T12:07:40.462Z,88.34
2017-12-22T12:09:07.806Z,88.41
2017-12-22T12:10:35.302Z,88.60
2017-12-22T12:12:02.687Z,88.30
2017-12-22T12:13:29.904Z,88.29
2017-12-22T12:14:57.120Z,88.60
2017-12-22T12:16:24.284Z,88.42
2017-12-22T12:17:51.530Z,88.47
2017-12-22T12:19:22.764Z,88.52
2017-12-22T12:20:50.031Z,88.78
2017-12-22T12:22:17.288Z,88.86
2017-12-22T12:23:44.427Z,88.70
2017-12-22T12:25:07.576Z,88.34
2017-12-22T12:26:39.014Z,88.53
2017-12-22T12:28:06.016Z,88.52
2017-12-22T12:29:29.345Z,88.45
2017-12-22T12:30:56.646Z,88.34
2017-12-22T12:32:27.667Z,88.32
2017-12-22T12:33:50.944Z,88.62
2017-12-22T12:35:22.128Z,88.72
2017-12-22T12:36:45.252Z,88.47
2017-12-22T12:38:16.434Z,88.56
2017-12-22T12:39:43.676Z,88.74
2017-12-22T12:41:06.889Z,88.86
2017-12-22T12:42:38.308Z,88.93
2017-12-22T12:44:01.636Z,88.71
2017-12-22T12:45:28.975Z,88.75
2017-12-22T12:46:56.288Z,88.72
2017-12-22T12:48:27.560Z,88.79
2017-12-22T12:49:54.865Z,88.81
2017-12-22T12:51:22.155Z,88.92
2017-12-22T12:52:49.634Z,88.81
2017-12-22T12:54:13.047Z,89.01
2017-12-22T12:55:44.362Z,88.86
2017-12-22T12:57:07.616Z,89.05
2017-12-22T12:58:38.765Z,88.74
2017-12-22T13:00:02.234Z,88.95
2017-12-22T13:01:33.293Z,88.78
2017-12-22T13:03:00.656Z,88.98
2017-12-22T13:04:27.742Z,89.17
2017-12-22T13:05:55.085Z,89.10
2017-12-22T13:07:18.397Z,89.07
2017-12-22T13:08:45.677Z,88.89
2017-12-22T13:10:13.063Z,88.82
2017-12-22T13:11:40.510Z,88.76
2017-12-22T13:13:07.646Z,88.70
2017-12-22T13:14:34.929Z,88.72
2017-12-22T13:16:02.343Z,89.03
2017-12-22T13:17:29.557Z,89.15
2017-12-22T13:19:00.787Z,89.22
2017-12-22T13:20:27.551Z,89.45
2017-12-22T13:21:50.911Z,89.55
2017-12-22T13:23:22.303Z,89.59
2017-12-22T13:24:45.467Z,90.00
2017-12-22T13:26:12.716Z,89.82
2017-12-22T13:27:43.841Z,89.68
2017-12-22T13:29:07.029Z,89.61
2017-12-22T13:30:38.092Z,89.63
2017-12-22T13:32:01.476Z,89.72
2017-12-22T13:33:32.663Z,89.96
2017-12-22T13:34:59.929Z,89.69
2017-12-22T13:36:23.506Z,89.92
2017-12-22T13:37:50.816Z,90.17
2017-12-22T13:39:21.916Z,90.08
2017-12-22T13:40:45.221Z,90.17
2017-12-22T13:42:16.401Z,90.11
2017-12-22T13:43:39.610Z,90.21
2017-12-22T13:45:06.823Z,89.99
2017-12-22T13:46:34.255Z,90.09
2017-12-22T13:48:05.509Z,90.14
2017-12-22T13:49:28.676Z,90.41
2017-12-22T13:50:56.005Z,90.30
2017-12-22T13:52:23.319Z,90.67
2017-12-22T13:53:50.541Z,90.48
2017-12-22T13:55:17.654Z,90.59
2017-12-22T13:56:48.965Z,90.98
2017-12-22T13:58:16.251Z,91.00
2017-12-22T13:59:43.588Z,91.27
2017-12-22T14:01:10.658Z,91.18
2017-12-22T14:02:38.060Z,91.25
2017-12-22T14:04:01.143Z,91.39
2017-12-22T14:05:28.507Z,91.64
2017-12-22T14:07:00.702Z,91.76
2017-12-22T14:08:22.990Z,91.66
2017-12-22T14:09:50.402Z,91.69
2017-12-22T14:11:21.661Z,91.60
2017-12-22T14:12:44.968Z,91.66
2017-12-22T14:14:16.268Z,91.78
2017-12-22T14:15:39.340Z,91.91
2017-12-22T14:17:06.636Z,91.92
2017-12-22T14:18:33.725Z,92.18
2017-12-22T14:20:01.215Z,91.96
2017-12-22T14:21:28.398Z,92.04
2017-12-22T14:22:55.501Z,92.24
2017-12-22T14:24:22.715Z,92.41
2017-12-22T14:25:50.136Z,92.46
2017-12-22T14:27:21.358Z,92.70
2017-12-22T14:28:44.654Z,92.60
2017-12-22T14:30:15.847Z,92.75
2017-12-22T14:31:43.192Z,92.81
2017-12-22T14:33:10.257Z,92.91
2017-12-22T14:34:37.548Z,93.10
2017-12-22T14:36:04.859Z,93.15
2017-12-22T14:37:32.064Z,93.30
2017-12-22T14:38:55.688Z,93.39
2017-12-22T14:40:22.985Z,93.23
2017-12-22T14:41:50.213Z,93.20
2017-12-22T14:43:17.518Z,93.26
2017-12-22T14:44:44.657Z,93.36
2017-12-22T14:46:12.075Z,93.37
2017-12-22T14:47:39.483Z,93.19
2017-12-22T14:49:10.709Z,93.31
2017-12-22T14:50:38.043Z,93.31
2017-12-22T14:52:01.448Z,93.23
2017-12-22T14:53:32.851Z,93.41
2017-12-22T14:54:56.129Z,93.48
2017-12-22T14:56:23.327Z,93.49
2017-12-22T14:57:54.566Z,93.57
2017-12-22T14:59:21.728Z,93.74
2017-12-22T15:00:49.253Z,93.69
2017-12-22T15:02:12.409Z,93.70
2017-12-22T15:03:43.686Z,93.63
2017-12-22T15:05:06.926Z,93.55
2017-12-22T15:06:34.355Z,93.55
2017-12-22T15:08:01.462Z,93.70
2017-12-22T15:09:28.991Z,93.84
2017-12-22T15:10:56.130Z,93.78
2017-12-22T15:12:23.394Z,93.91
2017-12-22T15:13:50.593Z,93.90
2017-12-22T15:15:17.878Z,93.99
2017-12-22T15:16:45.150Z,94.01
2017-12-22T15:18:16.033Z,94.10
2017-12-22T15:19:39.477Z,94.10
2017-12-22T15:21:06.674Z,93.98
2017-12-22T15:22:37.793Z,94.05
2017-12-22T15:24:05.288Z,93.96
2017-12-22T15:25:28.633Z,94.10
2017-12-22T15:26:55.699Z,94.15
2017-12-22T15:28:22.953Z,93.92
2017-12-22T15:29:50.153Z,93.86
2017-12-22T15:31:17.438Z,93.81
2017-12-22T15:32:48.588Z,94.00
2017-12-22T15:34:15.879Z,93.87
2017-12-22T15:35:39.041Z,93.67
2017-12-22T15:37:06.197Z,93.40
2017-12-22T15:38:33.385Z,93.32
2017-12-22T15:40:00.924Z,93.39
2017-12-22T15:41:32.086Z,93.41
2017-12-22T15:42:55.387Z,93.23
2017-12-22T15:44:26.821Z,93.21
2017-12-22T15:45:53.824Z,93.11
2017-12-22T15:47:17.309Z,92.98
2017-12-22T15:48:48.271Z,93.11
2017-12-22T15:50:11.624Z,93.44
2017-12-22T15:51:38.838Z,93.61
2017-12-22T15:53:09.992Z,93.63
2017-12-22T15:54:33.405Z,93.40
2017-12-22T15:56:00.673Z,93.42
2017-12-22T15:57:27.846Z,93.45
2017-12-22T15:58:59.069Z,93.45
2017-12-22T16:00:26.296Z,93.40
2017-12-22T16:01:53.645Z,93.32
2017-12-22T16:03:20.988Z,93.41
2017-12-22T16:04:47.993Z,93.23
2017-12-22T16:06:11.482Z,92.97
2017-12-22T16:07:42.650Z,92.90
2017-12-22T16:09:05.858Z,92.86
2017-12-22T16:10:33.205Z,92.95
2017-12-22T16:12:00.456Z,92.90
2017-12-22T16:13:27.787Z,92.80
2017-12-22T16:14:59.080Z,92.77
2017-12-22T16:16:26.110Z,92.57
2017-12-22T16:17:49.230Z,92.39
2017-12-22T16:19:16.496Z,92.58
2017-12-22T16:20:47.811Z,92.63
2017-12-22T16:22:15.074Z,92.62
2017-12-22T16:23:38.070Z,92.52
2017-12-22T16:25:09.129Z,92.53
2017-12-22T16:26:32.371Z,92.57
2017-12-22T16:27:59.699Z,92.60
2017-12-22T16:29:27.042Z,92.50
2017-12-22T16:30:58.234Z,92.33
2017-12-22T16:32:21.637Z,92.49
2017-12-22T16:33:52.793Z,92.53
2017-12-22T16:35:20.072Z,92.49
2017-12-22T16:36:43.455Z,92.89
2017-12-22T16:38:14.601Z,93.15
2017-12-22T16:39:41.625Z,93.45
2017-12-22T16:41:08.782Z,93.93
2017-12-22T16:42:31.940Z,93.93
2017-12-22T16:43:59.250Z,93.79
2017-12-22T16:45:26.267Z,93.48
2017-12-22T16:46:53.490Z,93.60
2017-12-22T16:48:24.775Z,93.44
2017-12-22T16:49:48.061Z,93.55
2017-12-22T16:51:15.540Z,93.55
2017-12-22T16:52:42.845Z,93.61
2017-12-22T16:54:13.820Z,93.50
2017-12-22T16:55:37.195Z,93.38
2017-12-22T16:57:04.319Z,93.29
2017-12-22T16:58:35.568Z,93.16
2017-12-22T17:00:02.546Z,93.04
2017-12-22T17:01:29.828Z,92.96
2017-12-22T17:02:57.009Z,92.83
2017-12-22T17:04:24.376Z,92.78
2017-12-22T17:05:47.570Z,92.78
2017-12-22T17:07:18.745Z,92.74
2017-12-22T17:08:41.902Z,92.58
2017-12-22T17:10:09.027Z,92.86
2017-12-22T17:11:36.329Z,93.12
2017-12-22T17:13:07.347Z,93.34
2017-12-22T17:14:34.846Z,93.32
2017-12-22T17:15:58.053Z,93.43
2017-12-22T17:17:25.317Z,93.62
2017-12-22T17:18:56.547Z,94.01
2017-12-22T17:20:19.686Z,94.09
2017-12-22T17:21:51.108Z,94.20
2017-12-22T17:23:14.235Z,94.39
2017-12-22T17:24:45.403Z,94.72
2017-12-22T17:26:12.345Z,94.88
2017-12-22T17:27:35.584Z,94.74
2017-12-22T17:29:06.771Z,94.75
2017-12-22T17:30:30.130Z,94.90
2017-12-22T17:31:57.500Z,94.97
2017-12-22T17:33:24.636Z,94.69
2017-12-22T17:34:52.141Z,94.75
2017-12-22T17:36:19.508Z,94.70
2017-12-22T17:37:46.552Z,94.92
2017-12-22T17:39:13.779Z,95.00
2017-12-22T17:40:40.853Z,95.00
2017-12-22T17:42:07.926Z,95.20
2017-12-22T17:43:35.358Z,95.12
2017-12-22T17:45:02.343Z,95.08
2017-12-22T17:46:33.758Z,95.08
2017-12-22T17:47:56.962Z,95.05
2017-12-22T17:49:23.990Z,95.12
2017-12-22T17:50:51.379Z,94.90
2017-12-22T17:52:18.580Z,94.70
2017-12-22T17:53:45.849Z,94.77
2017-12-22T17:55:13.106Z,94.59
2017-12-22T17:56:40.265Z,94.53
2017-12-22T17:58:11.441Z,94.49
2017-12-22T17:59:34.770Z,94.58
2017-12-22T18:01:02.200Z,94.66
2017-12-22T18:02:33.486Z,94.47
2017-12-22T18:03:56.725Z,94.56
2017-12-22T18:05:23.931Z,94.55
2017-12-22T18:06:51.158Z,94.45
2017-12-22T18:08:22.173Z,94.49
2017-12-22T18:09:49.557Z,94.50
2017-12-22T18:11:12.762Z,94.91
2017-12-22T18:12:43.838Z,94.95
2017-12-22T18:14:10.879Z,94.87
2017-12-22T18:15:34.197Z,94.99
2017-12-22T18:17:01.381Z,95.11
2017-12-22T18:18:28.581Z,95.28
2017-12-22T18:19:55.829Z,95.17
2017-12-22T18:21:23.032Z,95.22
2017-12-22T18:22:54.177Z,95.40
2017-12-22T18:24:17.381Z,95.53
2017-12-22T18:25:44.494Z,95.59
2017-12-22T18:27:15.684Z,95.76
2017-12-22T18:28:42.985Z,95.70
2017-12-22T18:30:10.035Z,95.76
2017-12-22T18:31:37.371Z,95.93
2017-12-22T18:33:00.759Z,96.06
2017-12-22T18:34:31.882Z,96.07
2017-12-22T18:35:59.243Z,96.21
2017-12-22T18:37:22.410Z,96.26
2017-12-22T18:38:49.828Z,96.43
2017-12-22T18:40:20.917Z,96.22
2017-12-22T18:41:48.085Z,96.31
2017-12-22T18:43:11.410Z,96.45